Time;durP1;ratioP1;P1;durP2;ratioP2;P2;SDS_P1;SDS_P2;PMS_P1;PMS_P2;Temp;Humidity;BMP_temperature;BMP_pressure;BME280_temperature;BME280_humidity;BME280_pressure;Samples;Min_cycle;Max_cycle;Signal;HPM_P1;HPM_P2
2022/03/12 04:00:57;;;;;;;1.83;1.63;;;7.40;53.10;;;;;;6079119;23;20478;31
2022/03/12 04:03:24;;;;;;;1.60;1.50;;;7.40;53.60;;;;;;4897405;29;20255;-68
2022/03/12 04:05:51;;;;;;;1.20;1.10;;;7.30;53.10;;;;;;4898501;29;20449;-68
2022/03/12 04:08:18;;;;;;;1.93;1.83;;;7.30;53.60;;;;;;4898416;29;21016;-68
2022/03/12 04:10:45;;;;;;;1.80;1.70;;;7.30;53.10;;;;;;4895591;29;20494;-68
2022/03/12 04:13:13;;;;;;;1.70;1.60;;;7.30;52.40;;;;;;4879981;29;20465;-68
2022/03/12 04:15:40;;;;;;;1.60;1.50;;;7.30;52.80;;;;;;4953491;23;20556;-68
2022/03/12 04:18:08;;;;;;;1.80;1.70;;;7.30;53.00;;;;;;4955684;29;20459;-68
2022/03/12 04:20:36;;;;;;;1.83;1.73;;;7.30;53.10;;;;;;4955627;29;20451;-68
2022/03/12 04:23:03;;;;;;;1.57;1.47;;;7.30;53.10;;;;;;4955664;29;20454;-68
2022/03/12 04:25:31;;;;;;;1.40;1.30;;;7.30;52.20;;;;;;4955475;28;20557;-68
2022/03/12 04:27:58;;;;;;;1.50;1.40;;;7.30;52.10;;;;;;4955460;29;20497;-68
2022/03/12 04:30:25;;;;;;;1.73;1.63;;;7.30;52.10;;;;;;4955311;29;20486;-69
2022/03/12 04:32:51;;;;;;;1.33;1.23;;;7.20;52.30;;;;;;4955028;28;20857;-68
2022/03/12 04:35:20;;;;;;;2.00;1.90;;;7.20;52.80;;;;;;4954957;28;21020;-68
2022/03/12 04:37:47;;;;;;;1.70;1.60;;;7.20;52.90;;;;;;4955053;29;20450;-68
2022/03/12 04:40:20;;;;;;;1.83;1.73;;;7.20;53.30;;;;;;4955297;29;20450;-68
2022/03/12 04:42:47;;;;;;;1.57;1.47;;;7.20;53.00;;;;;;4955328;29;20474;-68
2022/03/12 04:45:16;;;;;;;1.97;1.87;;;7.20;53.20;;;;;;4955630;28;20470;-68
2022/03/12 04:47:44;;;;;;;1.40;1.30;;;7.20;53.20;;;;;;4955774;29;21010;-68
2022/03/12 04:50:12;;;;;;;1.60;1.50;;;7.20;53.10;;;;;;4955798;29;21001;-69
2022/03/12 04:52:41;;;;;;;2.00;1.77;;;7.20;52.90;;;;;;4956065;29;20455;-68
2022/03/12 04:55:11;;;;;;;1.53;1.43;;;7.20;52.40;;;;;;4955626;28;20993;-69
2022/03/12 04:57:38;;;;;;;1.60;1.50;;;7.20;51.90;;;;;;4956282;29;20459;-69
2022/03/12 05:00:06;;;;;;;1.67;1.57;;;7.30;52.10;;;;;;4955784;29;20451;-69
2022/03/12 05:02:33;;;;;;;1.73;1.63;;;7.30;52.10;;;;;;4955835;29;20506;-69
2022/03/12 05:05:00;;;;;;;1.77;1.67;;;7.30;52.00;;;;;;4955746;28;20479;-69
2022/03/12 05:07:27;;;;;;;1.53;1.43;;;7.30;51.70;;;;;;4955764;29;20447;-69
2022/03/12 05:09:56;;;;;;;1.63;1.53;;;7.30;51.60;;;;;;4955941;29;20573;-69
2022/03/12 05:12:24;;;;;;;2.10;1.40;;;7.30;51.90;;;;;;4955745;29;20450;-69
2022/03/12 05:14:53;;;;;;;1.60;1.50;;;7.30;51.30;;;;;;4955322;28;20537;-69
2022/03/12 05:17:26;;;;;;;1.50;1.40;;;7.30;50.90;;;;;;4955344;29;20894;-69
2022/03/12 05:19:53;;;;;;;1.50;1.40;;;7.30;50.80;;;;;;4955536;29;20546;-69
2022/03/12 05:22:20;;;;;;;1.50;1.40;;;7.30;50.50;;;;;;4955262;29;20977;-69
2022/03/12 05:24:46;;;;;;;1.63;1.53;;;7.30;50.30;;;;;;4955057;28;20467;-70
2022/03/12 05:27:17;;;;;;;1.40;1.30;;;7.30;50.60;;;;;;4955956;29;20472;-69
2022/03/12 05:29:46;;;;;;;1.50;1.40;;;7.30;51.00;;;;;;4955342;29;21084;-68
2022/03/12 05:32:13;;;;;;;1.50;1.40;;;7.30;50.60;;;;;;4955364;29;20537;-69
2022/03/12 05:34:40;;;;;;;2.03;1.50;;;7.40;50.80;;;;;;4955263;28;20475;-68
2022/03/12 05:37:09;;;;;;;1.57;1.47;;;7.40;50.80;;;;;;4955399;29;20823;-67
2022/03/12 05:39:37;;;;;;;1.80;1.70;;;7.40;51.00;;;;;;4954863;29;20543;-68
2022/03/12 05:42:05;;;;;;;1.40;1.30;;;7.40;50.60;;;;;;4955556;29;20481;-68
2022/03/12 05:44:34;;;;;;;1.50;1.40;;;7.40;50.00;;;;;;4957039;28;20475;-68
2022/03/12 05:47:01;;;;;;;1.67;1.57;;;7.50;50.10;;;;;;4958201;29;20459;-68
2022/03/12 05:49:28;;;;;;;1.47;1.37;;;7.50;50.10;;;;;;4958108;29;20506;-68
2022/03/12 05:51:55;;;;;;;1.30;1.20;;;7.60;49.90;;;;;;4958087;29;20557;-68
2022/03/12 05:54:22;;;;;;;1.53;1.43;;;7.60;49.90;;;;;;4958021;28;20887;-68
2022/03/12 05:56:49;;;;;;;1.40;1.30;;;7.60;49.90;;;;;;4958100;29;20481;-68
2022/03/12 05:59:16;;;;;;;1.70;1.60;;;7.60;49.90;;;;;;4957744;29;20986;-68
2022/03/12 06:01:44;;;;;;;1.93;1.50;;;7.60;50.40;;;;;;4957951;29;20478;-68
2022/03/12 06:04:11;;;;;;;1.37;1.27;;;7.60;50.70;;;;;;4957853;28;20475;-69
2022/03/12 06:06:39;;;;;;;1.60;1.50;;;7.50;51.10;;;;;;4957919;29;20550;-68
2022/03/12 06:09:11;;;;;;;1.33;1.23;;;7.40;51.60;;;;;;4957902;29;20494;-68
2022/03/12 06:11:38;;;;;;;1.77;1.67;;;7.50;51.80;;;;;;4957869;29;20474;-68
2022/03/12 06:14:05;;;;;;;1.67;1.40;;;7.50;51.60;;;;;;4957545;28;20533;-69
2022/03/12 06:16:33;;;;;;;1.63;1.53;;;7.50;52.10;;;;;;4957795;29;20807;-69
2022/03/12 06:19:00;;;;;;;1.67;1.57;;;7.40;52.00;;;;;;4957668;29;20455;-67
2022/03/12 06:21:28;;;;;;;1.77;1.67;;;7.30;52.10;;;;;;4957640;29;20502;-68
2022/03/12 06:23:56;;;;;;;1.50;1.40;;;7.20;51.50;;;;;;4957556;28;20506;-68
2022/03/12 06:26:23;;;;;;;1.40;1.30;;;7.30;51.00;;;;;;4957542;29;20454;-67
2022/03/12 06:28:50;;;;;;;1.43;1.33;;;7.10;50.10;;;;;;4957717;29;20451;-68
2022/03/12 06:31:17;;;;;;;1.40;1.30;;;6.90;49.10;;;;;;4957107;29;21006;-68
2022/03/12 06:33:44;;;;;;;1.87;1.60;;;7.00;49.50;;;;;;4957372;28;20518;-69
2022/03/12 06:36:12;;;;;;;1.57;1.47;;;7.10;48.30;;;;;;4957921;29;20555;-69
2022/03/12 06:38:39;;;;;;;1.63;1.53;;;7.40;47.80;;;;;;4957004;29;20939;-68
2022/03/12 06:41:06;;;;;;;1.30;1.20;;;7.80;47.60;;;;;;4957323;29;20926;-68
2022/03/12 06:43:33;;;;;;;1.40;1.30;;;8.20;47.10;;;;;;4957233;29;20446;-68
2022/03/12 06:46:01;;;;;;;1.30;1.20;;;8.40;46.20;;;;;;4957072;28;20565;-68
2022/03/12 06:48:29;;;;;;;1.33;1.23;;;8.80;45.30;;;;;;4957210;29;20809;-69
2022/03/12 06:50:56;;;;;;;1.40;1.30;;;9.20;44.70;;;;;;4956755;29;21002;-69
2022/03/12 06:53:24;;;;;;;1.50;1.40;;;9.40;44.00;;;;;;4957026;29;20451;-68
2022/03/12 06:55:52;;;;;;;1.60;1.50;;;9.60;44.10;;;;;;4955837;28;20463;-68
2022/03/12 06:58:19;;;;;;;1.23;1.13;;;10.00;43.40;;;;;;4956620;29;20942;-69
2022/03/12 07:00:45;;;;;;;1.20;1.10;;;10.70;42.80;;;;;;4956927;29;20450;-69
2022/03/12 07:03:12;;;;;;;1.10;1.00;;;11.40;41.30;;;;;;4956856;29;20455;-69
2022/03/12 07:05:39;;;;;;;1.50;1.37;;;12.30;40.50;;;;;;4956757;28;20470;-69
2022/03/12 07:08:05;;;;;;;1.37;1.27;;;13.20;39.40;;;;;;4956848;29;20869;-69
2022/03/12 07:10:34;;;;;;;1.30;1.03;;;13.80;38.10;;;;;;4956609;29;20483;-68
2022/03/12 07:13:00;;;;;;;1.40;1.30;;;14.50;37.40;;;;;;4956596;29;20451;-69
2022/03/12 07:15:27;;;;;;;1.20;1.10;;;15.20;36.70;;;;;;4956241;28;20479;-69
2022/03/12 07:17:55;;;;;;;1.33;1.23;;;15.90;35.40;;;;;;4956636;29;20450;-69
2022/03/12 07:20:22;;;;;;;1.20;1.10;;;16.40;34.20;;;;;;4956482;29;20537;-69
2022/03/12 07:22:49;;;;;;;1.20;1.10;;;16.80;33.70;;;;;;4956181;29;20962;-69
2022/03/12 07:25:17;;;;;;;1.30;1.20;;;17.00;33.50;;;;;;4956056;28;21033;-69
2022/03/12 07:27:45;;;;;;;1.43;1.33;;;17.10;33.10;;;;;;4956461;29;20510;-69
2022/03/12 07:30:14;;;;;;;1.37;1.27;;;17.30;32.70;;;;;;4956273;29;20494;-69
2022/03/12 07:32:42;;;;;;;1.30;1.20;;;17.40;32.40;;;;;;4956511;29;20931;-69
2022/03/12 07:35:10;;;;;;;1.30;1.20;;;17.80;32.40;;;;;;4956446;28;20471;-69
2022/03/12 07:37:37;;;;;;;1.30;1.20;;;18.00;31.90;;;;;;4956605;29;20814;-70
2022/03/12 07:40:05;;;;;;;1.20;1.10;;;18.50;32.00;;;;;;4956832;29;20873;-70
2022/03/12 07:42:32;;;;;;;1.30;1.20;;;18.60;31.00;;;;;;4956514;29;20482;-70
2022/03/12 07:45:00;;;;;;;1.73;1.33;;;18.20;31.10;;;;;;4957058;28;20475;-70
2022/03/12 07:47:26;;;;;;;1.53;1.40;;;17.70;32.80;;;;;;4956468;29;20451;-70
2022/03/12 07:49:53;;;;;;;1.27;1.17;;;17.60;33.00;;;;;;4955852;29;20957;-69
2022/03/12 07:52:20;;;;;;;1.67;1.43;;;17.40;33.10;;;;;;4955920;29;20577;-69
2022/03/12 07:54:47;;;;;;;1.50;1.40;;;16.70;32.60;;;;;;4955887;28;20546;-69
2022/03/12 07:57:14;;;;;;;1.23;1.13;;;15.90;34.10;;;;;;4957345;29;20510;-69
2022/03/12 07:59:40;;;;;;;1.90;1.57;;;15.40;35.60;;;;;;4955768;29;20517;-68
2022/03/12 08:02:08;;;;;;;1.50;1.40;;;14.40;36.20;;;;;;4955778;29;20455;-69
2022/03/12 08:04:35;;;;;;;1.40;1.30;;;14.40;37.40;;;;;;4955808;28;20475;-69
2022/03/12 08:07:04;;;;;;;1.20;1.10;;;14.40;37.70;;;;;;4955545;28;20451;-69
2022/03/12 08:09:31;;;;;;;1.57;1.47;;;13.70;37.80;;;;;;4955811;29;20451;-69
2022/03/12 08:11:58;;;;;;;1.40;1.30;;;13.50;39.00;;;;;;4955436;29;21065;-69
2022/03/12 08:14:26;;;;;;;1.60;1.50;;;13.50;39.50;;;;;;4955553;28;20482;-70
2022/03/12 08:16:53;;;;;;;1.87;1.70;;;13.30;39.20;;;;;;4955607;29;20451;-69
2022/03/12 08:19:21;;;;;;;1.70;1.60;;;13.30;39.80;;;;;;4955295;29;21041;-69
2022/03/12 08:21:49;;;;;;;2.70;1.63;;;13.10;39.80;;;;;;4955479;29;20443;-69
2022/03/12 08:24:16;;;;;;;1.33;1.23;;;13.00;39.90;;;;;;4955414;28;20493;-69
2022/03/12 08:26:42;;;;;;;1.57;1.47;;;12.70;40.40;;;;;;4955523;29;20504;-69
2022/03/12 08:29:10;;;;;;;1.57;1.47;;;12.80;40.90;;;;;;4955463;29;20455;-69
2022/03/12 08:31:37;;;;;;;1.50;1.40;;;12.80;41.20;;;;;;4955327;29;20486;-69
2022/03/12 08:34:03;;;;;;;1.63;1.53;;;12.80;41.40;;;;;;4955311;28;20478;-69
2022/03/12 08:36:32;;;;;;;1.33;1.23;;;12.50;40.90;;;;;;4955302;29;20533;-69
2022/03/12 08:38:58;;;;;;;2.03;1.43;;;12.40;41.60;;;;;;4955024;29;20813;-68
2022/03/12 08:41:25;;;;;;;3.50;1.40;;;12.10;41.60;;;;;;4955265;29;20446;-69
2022/03/12 08:43:52;;;;;;;1.70;1.60;;;12.10;42.30;;;;;;4955184;28;20450;-69
2022/03/12 08:46:19;;;;;;;1.40;1.30;;;11.90;42.50;;;;;;4955309;29;20457;-69
2022/03/12 08:48:46;;;;;;;1.40;1.30;;;11.80;42.80;;;;;;4955242;29;20569;-69
2022/03/12 08:51:14;;;;;;;1.50;1.20;;;11.60;42.90;;;;;;4954833;29;20998;-69
2022/03/12 08:53:42;;;;;;;2.50;1.50;;;11.50;42.80;;;;;;4954773;28;21009;-69
2022/03/12 08:56:08;;;;;;;1.47;1.37;;;11.50;43.00;;;;;;4955174;29;20501;-69
2022/03/12 08:58:37;;;;;;;1.70;1.60;;;11.20;43.30;;;;;;4955135;29;20869;-68
2022/03/12 09:01:08;;;;;;;1.47;1.37;;;11.00;43.60;;;;;;4955132;29;20457;-69
2022/03/12 09:03:35;;;;;;;1.70;1.60;;;11.10;43.80;;;;;;4954818;29;20440;-68
2022/03/12 09:06:03;;;;;;;1.60;1.50;;;11.20;43.80;;;;;;4954679;29;20851;-69
2022/03/12 09:08:30;;;;;;;1.60;1.50;;;11.00;43.80;;;;;;4955025;29;20454;-70
2022/03/12 09:10:59;;;;;;;1.73;1.60;;;11.10;44.50;;;;;;4954960;29;20494;-70
2022/03/12 09:13:26;;;;;;;1.97;1.87;;;11.10;43.40;;;;;;4955085;29;20455;-69
2022/03/12 09:15:52;;;;;;;1.40;1.30;;;11.30;43.80;;;;;;4954545;28;20482;-69
2022/03/12 09:18:20;;;;;;;1.70;1.60;;;11.60;43.80;;;;;;4955873;28;20591;-69
2022/03/12 09:20:47;;;;;;;1.63;1.53;;;11.90;43.40;;;;;;4958672;29;20477;-68
2022/03/12 09:23:15;;;;;;;1.70;1.60;;;12.00;42.70;;;;;;4958673;29;20473;-70
2022/03/12 09:25:42;;;;;;;1.73;1.63;;;11.60;43.30;;;;;;4958525;28;20470;-69
2022/03/12 09:28:13;;;;;;;1.87;1.77;;;11.90;43.90;;;;;;4958595;29;20453;-69
2022/03/12 09:30:39;;;;;;;1.47;1.37;;;12.00;43.10;;;;;;4958274;29;20991;-69
2022/03/12 09:33:07;;;;;;;1.60;1.50;;;11.90;43.40;;;;;;4958406;29;20483;-69
2022/03/12 09:35:35;;;;;;;1.87;1.77;;;11.80;44.10;;;;;;4958354;28;20467;-69
2022/03/12 09:38:03;;;;;;;1.50;1.40;;;11.80;43.80;;;;;;4958400;29;20500;-70
2022/03/12 09:40:31;;;;;;;1.60;1.50;;;12.10;43.70;;;;;;4958348;29;20517;-70
2022/03/12 09:42:58;;;;;;;2.40;2.20;;;12.10;43.50;;;;;;4958271;29;20454;-74
2022/03/12 09:45:26;;;;;;;1.73;1.63;;;12.20;45.80;;;;;;4958074;28;20860;-73
2022/03/12 09:47:53;;;;;;;1.73;1.60;;;12.30;44.10;;;;;;4958030;29;20934;-72
2022/03/12 09:50:20;;;;;;;1.70;1.60;;;12.50;43.40;;;;;;4958044;29;20454;-72
2022/03/12 09:52:47;;;;;;;1.80;1.70;;;12.60;44.40;;;;;;4958134;29;20483;-72
2022/03/12 09:55:15;;;;;;;2.10;2.00;;;12.60;43.90;;;;;;4958121;28;20467;-74
2022/03/12 09:57:42;;;;;;;1.80;1.70;;;12.70;44.90;;;;;;4958176;29;20864;-73
2022/03/12 10:00:09;;;;;;;2.07;1.97;;;13.00;43.20;;;;;;4957866;29;20455;-69
2022/03/12 10:02:37;;;;;;;1.87;1.77;;;12.90;42.20;;;;;;4957939;29;20812;-70
2022/03/12 10:05:05;;;;;;;1.63;1.53;;;13.00;43.00;;;;;;4958109;28;20951;-71
2022/03/12 10:07:31;;;;;;;1.60;1.50;;;12.90;42.60;;;;;;4958036;29;20865;-69
2022/03/12 10:09:58;;;;;;;1.70;1.60;;;12.80;43.20;;;;;;4958211;29;20447;-70
2022/03/12 10:12:25;;;;;;;1.63;1.53;;;12.80;43.50;;;;;;4957850;29;21061;-70
2022/03/12 10:14:51;;;;;;;1.70;1.60;;;12.80;43.30;;;;;;5076971;23;20490;-73
2022/03/12 10:17:18;;;;;;;1.80;1.70;;;12.80;43.10;;;;;;4960076;29;20439;-72
2022/03/12 10:19:47;;;;;;;1.50;1.40;;;12.90;43.80;;;;;;4960096;29;20552;-75
2022/03/12 10:22:14;;;;;;;3.70;1.80;;;13.00;43.70;;;;;;4959046;29;20451;-71
2022/03/12 10:24:41;;;;;;;2.50;1.87;;;13.10;43.10;;;;;;4958579;28;20485;-71
2022/03/12 10:27:09;;;;;;;1.60;1.50;;;12.90;43.40;;;;;;4958741;29;20451;-71
2022/03/12 10:29:38;;;;;;;1.80;1.70;;;13.10;45.20;;;;;;4959113;28;20462;-70
2022/03/12 10:32:23;;;;;;;1.93;1.83;;;13.40;44.80;;;;;;4958188;29;20518;-68
2022/03/12 10:34:56;;;;;;;1.70;1.60;;;13.50;43.20;;;;;;4958381;28;20890;-68
2022/03/12 10:37:25;;;;;;;1.97;1.87;;;13.50;43.20;;;;;;4958467;29;20459;-70
2022/03/12 10:40:03;;;;;;;1.70;1.60;;;13.30;42.20;;;;;;4957839;29;20947;-71
2022/03/12 10:42:30;;;;;;;1.40;1.30;;;13.40;43.50;;;;;;4958340;29;20443;-70
2022/03/12 10:45:06;;;;;;;1.80;1.70;;;13.40;43.70;;;;;;4958091;28;20542;-70
2022/03/12 10:47:38;;;;;;;1.80;1.70;;;13.60;43.10;;;;;;4957568;29;20443;-70
2022/03/12 10:50:10;;;;;;;1.50;1.40;;;13.70;43.50;;;;;;4957103;29;20793;-71
2022/03/12 10:52:43;;;;;;;1.40;1.30;;;13.70;43.90;;;;;;4956836;29;20482;-70
2022/03/12 10:55:18;;;;;;;1.90;1.80;;;13.50;42.30;;;;;;4956837;28;20482;-70
2022/03/12 10:58:04;;;;;;;1.80;1.70;;;13.40;43.40;;;;;;4956955;29;20506;-69
2022/03/12 11:00:33;;;;;;;1.50;1.40;;;13.60;44.90;;;;;;4956862;29;20482;-69
2022/03/12 11:03:02;;;;;;;1.67;1.57;;;13.50;46.90;;;;;;4956496;29;20961;-70
2022/03/12 11:05:34;;;;;;;2.00;1.90;;;13.60;45.40;;;;;;4956681;28;20477;-69
2022/03/12 11:08:17;;;;;;;1.60;1.50;;;13.60;44.10;;;;;;4956762;29;20435;-69
2022/03/12 11:10:46;;;;;;;1.70;1.60;;;13.90;46.00;;;;;;4956746;29;20435;-69
2022/03/12 11:13:29;;;;;;;1.40;1.30;;;14.10;44.70;;;;;;4956580;29;20494;-70
2022/03/12 11:16:15;;;;;;;1.93;1.83;;;14.40;44.30;;;;;;4956094;28;20483;-69
2022/03/12 11:19:00;;;;;;;1.60;1.50;;;14.50;43.50;;;;;;4956205;29;20911;-70
2022/03/12 11:21:35;;;;;;;1.70;1.60;;;14.70;43.50;;;;;;4956149;29;20439;-70
2022/03/12 11:24:03;;;;;;;1.83;1.73;;;14.80;42.60;;;;;;4956367;29;20529;-70
2022/03/12 11:26:30;;;;;;;1.70;1.60;;;14.50;43.10;;;;;;4956191;29;20459;-71
2022/03/12 11:28:58;;;;;;;1.90;1.73;;;14.50;42.80;;;;;;4956579;29;20450;-71
2022/03/12 11:31:39;;;;;;;1.77;1.67;;;14.30;44.30;;;;;;4955820;29;20825;-70
2022/03/12 11:34:20;;;;;;;1.37;1.27;;;14.50;45.70;;;;;;4955857;28;20463;-70
2022/03/12 11:37:06;;;;;;;1.30;1.20;;;14.60;45.90;;;;;;4956302;29;20443;-70
2022/03/12 11:39:36;;;;;;;1.60;1.50;;;14.90;45.60;;;;;;4956158;29;20443;-70
2022/03/12 11:42:11;;;;;;;1.60;1.50;;;15.20;45.10;;;;;;4955621;28;20435;-71
2022/03/12 11:44:40;;;;;;;1.70;1.60;;;15.20;42.80;;;;;;4956059;28;20474;-71
2022/03/12 11:47:07;;;;;;;1.50;1.40;;;15.00;44.50;;;;;;4956261;29;20455;-72
2022/03/12 11:49:34;;;;;;;1.83;1.73;;;15.20;43.80;;;;;;4956231;29;20451;-73
2022/03/12 11:52:03;;;;;;;1.43;1.33;;;15.40;45.50;;;;;;4956194;29;20494;-69
2022/03/12 11:54:31;;;;;;;1.70;1.33;;;15.80;45.10;;;;;;4955676;28;20982;-68
2022/03/12 11:56:59;;;;;;;1.63;1.53;;;15.90;46.50;;;;;;4956173;29;20450;-69
2022/03/12 11:59:26;;;;;;;1.20;1.10;;;16.10;44.80;;;;;;4955873;29;20455;-69
2022/03/12 12:02:02;;;;;;;1.13;1.03;;;16.10;44.10;;;;;;4955836;29;20464;-69
2022/03/12 12:04:32;;;;;;;1.30;1.20;;;16.10;45.50;;;;;;4955426;28;20838;-69
2022/03/12 12:07:02;;;;;;;1.23;1.13;;;16.10;45.10;;;;;;4955737;29;20477;-70
2022/03/12 12:09:29;;;;;;;1.50;1.40;;;16.30;45.00;;;;;;4955463;29;21010;-70
2022/03/12 12:11:55;;;;;;;1.40;1.30;;;16.60;45.10;;;;;;4955687;29;20490;-69
2022/03/12 12:14:24;;;;;;;1.40;1.30;;;17.10;43.00;;;;;;4955481;28;20459;-69
2022/03/12 12:16:50;;;;;;;1.60;1.50;;;17.50;42.20;;;;;;4955703;29;20554;-69
2022/03/12 12:19:17;;;;;;;1.47;1.37;;;17.40;41.90;;;;;;4955755;29;20572;-69
2022/03/12 12:21:44;;;;;;;1.10;1.00;;;17.40;42.80;;;;;;4955600;29;20571;-69
2022/03/12 12:24:32;;;;;;;1.70;1.17;;;17.30;44.20;;;;;;4955471;28;20462;-70
2022/03/12 12:27:01;;;;;;;1.23;1.13;;;17.30;44.80;;;;;;4955191;29;20996;-68
2022/03/12 12:29:45;;;;;;;1.27;1.17;;;17.50;44.40;;;;;;4955354;29;20525;-69
2022/03/12 12:32:13;;;;;;;1.40;1.30;;;17.20;44.60;;;;;;4955180;29;20533;-68
2022/03/12 12:34:58;;;;;;;1.20;1.10;;;17.20;44.40;;;;;;4955182;28;20470;-69
2022/03/12 12:37:46;;;;;;;1.10;1.00;;;17.50;43.90;;;;;;4955313;29;20433;-68
2022/03/12 12:40:26;;;;;;;2.80;1.20;;;17.90;44.40;;;;;;4954953;29;20973;-70
2022/03/12 12:42:55;;;;;;;1.23;1.13;;;18.20;43.40;;;;;;4955216;29;20435;-70
2022/03/12 12:45:24;;;;;;;1.20;1.10;;;18.30;42.90;;;;;;4955089;28;20463;-69
2022/03/12 12:48:06;;;;;;;1.23;1.13;;;18.50;42.70;;;;;;4955158;29;20505;-69
2022/03/12 12:50:33;;;;;;;1.20;1.10;;;18.20;43.20;;;;;;4954865;29;20934;-69
2022/03/12 12:53:18;;;;;;;1.40;1.27;;;18.20;43.20;;;;;;4955498;28;20483;-68
2022/03/12 12:55:46;;;;;;;1.20;1.10;;;18.10;43.20;;;;;;4959042;28;20470;-68
2022/03/12 12:58:13;;;;;;;1.03;0.93;;;17.90;43.30;;;;;;4959036;29;20510;-68
2022/03/12 13:00:43;;;;;;;1.10;1.00;;;18.00;43.50;;;;;;4959031;29;20912;-70
2022/03/12 13:03:14;;;;;;;1.20;1.10;;;18.40;43.90;;;;;;4959077;29;20450;-69
2022/03/12 13:05:51;;;;;;;1.33;1.23;;;18.50;43.40;;;;;;4958852;28;20471;-69
2022/03/12 13:08:26;;;;;;;1.10;1.00;;;18.80;42.40;;;;;;4958959;29;20466;-68
2022/03/12 13:10:55;;;;;;;1.60;1.50;;;18.80;42.50;;;;;;4958626;29;20902;-68
2022/03/12 13:13:23;;;;;;;1.10;1.00;;;19.00;41.50;;;;;;4958718;29;20492;-72
2022/03/12 13:15:52;;;;;;;1.00;0.90;;;19.10;41.70;;;;;;4958369;28;20557;-73
2022/03/12 13:18:39;;;;;;;1.10;1.00;;;19.30;41.40;;;;;;4958741;29;20450;-72
2022/03/12 13:21:24;;;;;;;1.10;1.00;;;19.20;41.10;;;;;;4958756;29;20454;-72
2022/03/12 13:23:51;;;;;;;1.03;0.93;;;18.90;41.50;;;;;;4958678;29;20439;-72
2022/03/12 13:26:19;;;;;;;1.10;0.90;;;18.70;41.60;;;;;;4958269;28;20851;-72
2022/03/12 13:28:49;;;;;;;1.30;1.20;;;18.90;41.80;;;;;;4958544;29;20504;-72
2022/03/12 13:31:23;;;;;;;1.50;1.40;;;18.80;41.20;;;;;;4958476;29;20455;-72
2022/03/12 13:33:57;;;;;;;1.20;1.10;;;18.80;41.60;;;;;;4958358;29;20477;-72
2022/03/12 13:36:26;;;;;;;1.40;1.30;;;18.90;41.00;;;;;;4958410;28;20474;-72
2022/03/12 13:38:54;;;;;;;1.20;1.10;;;18.80;40.70;;;;;;4958396;29;20486;-72
2022/03/12 13:41:24;;;;;;;1.20;1.10;;;18.60;41.40;;;;;;4958459;29;20450;-72
2022/03/12 13:43:51;;;;;;;1.30;1.20;;;18.90;41.30;;;;;;4958081;29;20831;-72
2022/03/12 13:46:22;;;;;;;1.30;1.20;;;19.20;40.30;;;;;;4958200;28;20474;-71
2022/03/12 13:49:02;;;;;;;1.30;1.20;;;19.00;40.40;;;;;;4958284;29;20440;-71
2022/03/12 13:51:29;;;;;;;1.30;1.20;;;18.60;41.00;;;;;;4958255;29;20427;-72
2022/03/12 13:53:56;;;;;;;1.40;1.30;;;18.60;40.70;;;;;;4958095;29;20490;-71
2022/03/12 13:56:27;;;;;;;2.20;1.50;;;18.90;40.60;;;;;;4958014;28;20540;-71
2022/03/12 13:58:54;;;;;;;1.43;1.33;;;19.20;39.90;;;;;;4957786;29;20479;-72
2022/03/12 14:01:34;;;;;;;1.20;1.10;;;19.30;39.80;;;;;;4957679;29;20947;-72
2022/03/12 14:04:01;;;;;;;1.40;1.30;;;19.40;40.10;;;;;;4957141;28;20827;-72
2022/03/12 14:06:40;;;;;;;1.60;1.50;;;19.50;39.50;;;;;;4957925;29;20513;-71
2022/03/12 14:09:10;;;;;;;1.20;1.10;;;19.50;39.80;;;;;;4957904;29;20441;-71
2022/03/12 14:11:41;;;;;;;1.10;1.00;;;19.80;39.50;;;;;;4957825;29;20450;-72
2022/03/12 14:14:09;;;;;;;1.40;1.30;;;20.10;38.90;;;;;;4957668;28;20526;-73
2022/03/12 14:16:40;;;;;;;1.53;1.40;;;20.50;38.40;;;;;;4957362;29;20459;-72
2022/03/12 14:19:08;;;;;;;1.83;1.70;;;20.60;38.00;;;;;;4957710;29;20538;-71
2022/03/12 14:21:37;;;;;;;1.40;1.30;;;21.10;38.00;;;;;;4957584;29;20501;-72
2022/03/12 14:24:18;;;;;;;1.27;1.17;;;22.10;36.50;;;;;;4957497;28;20451;-73
2022/03/12 14:26:57;;;;;;;1.73;1.63;;;22.40;35.90;;;;;;4957524;29;20505;-72
2022/03/12 14:29:25;;;;;;;1.37;1.27;;;22.60;35.60;;;;;;4957495;29;20439;-72
2022/03/12 14:31:55;;;;;;;1.40;1.30;;;22.70;35.40;;;;;;4957143;29;20947;-72
2022/03/12 14:34:22;;;;;;;1.23;1.13;;;22.80;35.60;;;;;;4957345;28;20517;-72
2022/03/12 14:36:49;;;;;;;1.20;1.10;;;23.20;35.20;;;;;;4957631;29;20502;-72
2022/03/12 14:39:17;;;;;;;1.40;1.20;;;23.70;34.70;;;;;;4957327;29;20508;-72
2022/03/12 14:41:46;;;;;;;1.40;1.30;;;23.80;34.40;;;;;;4957219;29;20482;-72
2022/03/12 14:44:16;;;;;;;1.13;1.03;;;23.50;34.40;;;;;;4957183;28;20447;-73
2022/03/12 14:46:46;;;;;;;1.20;1.10;;;23.30;34.70;;;;;;4957263;29;20459;-72
2022/03/12 14:49:25;;;;;;;1.50;1.40;;;23.40;34.80;;;;;;4957181;29;20435;-72
2022/03/12 14:51:54;;;;;;;1.40;1.30;;;23.10;34.70;;;;;;4956996;29;20867;-72
2022/03/12 14:54:25;;;;;;;1.30;1.20;;;22.90;34.70;;;;;;4957106;28;20522;-73
2022/03/12 14:56:54;;;;;;;1.23;1.13;;;22.80;34.60;;;;;;4957013;29;20501;-72
2022/03/12 14:59:27;;;;;;;1.20;1.10;;;23.00;34.30;;;;;;4956972;29;20482;-72
2022/03/12 15:02:18;;;;;;;1.30;1.20;;;23.40;34.20;;;;;;4956982;29;20454;-73
2022/03/12 15:04:55;;;;;;;1.27;1.17;;;24.10;34.10;;;;;;4938232;28;20479;-73
2022/03/12 15:07:25;;;;;;;1.30;1.20;;;24.20;33.50;;;;;;4956592;29;20911;-73
2022/03/12 15:09:54;;;;;;;1.03;0.93;;;23.90;33.70;;;;;;4956766;29;20443;-72
2022/03/12 15:12:34;;;;;;;1.40;1.30;;;23.60;34.00;;;;;;4956749;29;20485;-72
2022/03/12 15:15:18;;;;;;;1.23;1.13;;;23.30;34.10;;;;;;4956406;28;20530;-73
2022/03/12 15:17:45;;;;;;;1.23;1.07;;;23.00;34.30;;;;;;4956211;29;20904;-73
2022/03/12 15:20:15;;;;;;;1.30;1.20;;;23.30;34.10;;;;;;4956552;29;20447;-73
2022/03/12 15:22:42;;;;;;;1.17;1.07;;;23.50;33.70;;;;;;4956496;29;20625;-72
2022/03/12 15:25:12;;;;;;;1.50;1.40;;;23.20;34.20;;;;;;4956445;28;20471;-73
2022/03/12 15:27:39;;;;;;;1.37;1.27;;;23.30;34.10;;;;;;4957278;29;20541;-73
2022/03/12 15:30:12;;;;;;;1.27;1.17;;;23.40;33.90;;;;;;4956336;29;20447;-73
2022/03/12 15:32:39;;;;;;;1.20;1.10;;;23.40;33.80;;;;;;4955958;29;20907;-72
2022/03/12 15:35:08;;;;;;;1.47;1.37;;;23.10;34.00;;;;;;4956250;28;20470;-72
2022/03/12 15:37:41;;;;;;;1.53;1.43;;;22.60;34.60;;;;;;4956294;29;20451;-73
2022/03/12 15:40:11;;;;;;;1.60;1.50;;;22.30;35.00;;;;;;4955943;29;20458;-72
2022/03/12 15:42:40;;;;;;;1.67;1.57;;;21.90;35.60;;;;;;4956420;29;20451;-72
2022/03/12 15:45:13;;;;;;;1.20;1.10;;;21.60;35.90;;;;;;4956019;28;20474;-73
2022/03/12 15:47:41;;;;;;;1.40;1.30;;;21.20;36.30;;;;;;4956144;29;20435;-72
2022/03/12 15:50:14;;;;;;;1.30;1.17;;;20.90;36.60;;;;;;4956068;29;20451;-72
2022/03/12 15:52:41;;;;;;;2.23;1.30;;;20.60;37.30;;;;;;4956112;29;20514;-73
2022/03/12 15:55:09;;;;;;;1.17;1.07;;;20.20;37.90;;;;;;4955879;28;20459;-72
2022/03/12 15:57:37;;;;;;;1.20;1.10;;;19.70;39.30;;;;;;4955878;29;20450;-72
2022/03/12 16:00:05;;;;;;;1.20;1.10;;;19.40;39.80;;;;;;4955889;29;20878;-73
2022/03/12 16:02:33;;;;;;;1.10;1.00;;;19.00;40.30;;;;;;4956219;29;20450;-72
2022/03/12 16:04:59;;;;;;;1.13;1.03;;;18.50;41.10;;;;;;4955774;28;20455;-73
2022/03/12 16:07:26;;;;;;;1.17;1.07;;;18.10;42.00;;;;;;4955413;29;20934;-72
2022/03/12 16:09:54;;;;;;;1.50;1.40;;;17.70;42.90;;;;;;4955648;29;20450;-72
2022/03/12 16:12:22;;;;;;;1.40;1.30;;;17.50;43.10;;;;;;4955717;29;20455;-72
2022/03/12 16:14:49;;;;;;;1.40;1.30;;;17.50;43.40;;;;;;5060415;23;20472;-69
2022/03/12 16:17:17;;;;;;;1.10;1.00;;;17.50;43.80;;;;;;4955887;29;20584;-69
2022/03/12 16:19:45;;;;;;;1.50;1.10;;;17.40;43.70;;;;;;4955503;29;20533;-68
2022/03/12 16:22:13;;;;;;;1.17;1.07;;;17.30;43.70;;;;;;4955470;29;20453;-68
2022/03/12 16:24:39;;;;;;;1.13;1.03;;;17.20;43.70;;;;;;4955413;28;20447;-70
2022/03/12 16:27:07;;;;;;;1.30;1.20;;;17.00;44.10;;;;;;4955244;28;20455;-68
2022/03/12 16:29:33;;;;;;;1.10;1.00;;;16.80;44.50;;;;;;4955399;29;20478;-68
2022/03/12 16:32:00;;;;;;;1.13;1.03;;;16.80;44.50;;;;;;4955353;29;20446;-68
2022/03/12 16:34:27;;;;;;;2.73;1.30;;;16.70;44.60;;;;;;4955340;29;20557;-68
2022/03/12 16:36:55;;;;;;;1.17;1.07;;;16.70;44.70;;;;;;4955024;29;20884;-69
2022/03/12 16:39:22;;;;;;;1.03;0.93;;;16.60;44.90;;;;;;4955302;29;20458;-67
2022/03/12 16:41:49;;;;;;;1.20;1.10;;;16.40;45.20;;;;;;4955302;29;20451;-69
2022/03/12 16:44:17;;;;;;;1.20;1.07;;;16.20;48.10;;;;;;4955310;29;20462;-70
2022/03/12 16:46:45;;;;;;;1.50;1.40;;;16.20;46.50;;;;;;4955217;28;20471;-72
2022/03/12 16:49:15;;;;;;;1.30;1.20;;;16.20;46.00;;;;;;4954858;29;20458;-69
2022/03/12 16:51:43;;;;;;;1.20;1.10;;;16.10;45.90;;;;;;4955277;29;20443;-71
2022/03/12 16:54:12;;;;;;;1.13;1.03;;;16.00;46.30;;;;;;4955132;29;20490;-70
2022/03/12 16:56:39;;;;;;;1.13;1.00;;;16.00;46.40;;;;;;4955100;28;20502;-71
2022/03/12 16:59:06;;;;;;;1.20;1.10;;;15.90;46.50;;;;;;4955167;29;20482;-71